createdAt,value
2019-01-19T00:01:17.281Z,95430.47
2019-01-19T00:04:12.011Z,95428.06
2019-01-19T00:07:24.412Z,95422.24
2019-01-19T00:10:29.846Z,95424.86
2019-01-19T00:13:33.105Z,95432.82
2019-01-19T00:16:21.586Z,95430.44
2019-01-19T00:19:33.825Z,95435.75
2019-01-19T00:22:25.631Z,95433.34
2019-01-19T00:25:33.887Z,95442.39
2019-01-19T00:28:36.759Z,95433.61
2019-01-19T00:31:18.543Z,95435.46
2019-01-19T00:34:37.761Z,95443.15
2019-01-19T00:37:28.522Z,95441.02
2019-01-19T00:40:22.655Z,95448.19
2019-01-19T00:43:09.626Z,95453.53
2019-01-19T00:46:23.730Z,95458.80
2019-01-19T00:49:20.587Z,95454.00
2019-01-19T00:52:15.311Z,95458.78
2019-01-19T00:55:24.442Z,95461.16
2019-01-19T00:58:46.949Z,95463.00
2019-01-19T01:01:38.970Z,95455.55
2019-01-19T01:04:55.479Z,95459.58
2019-01-19T01:08:04.545Z,95451.91
2019-01-19T01:10:57.584Z,95447.17
2019-01-19T01:14:06.989Z,95449.03
2019-01-19T01:17:12.508Z,95445.04
2019-01-19T01:20:22.643Z,95452.20
2019-01-19T01:23:14.238Z,95460.44
2019-01-19T01:26:19.273Z,95275.77
2019-01-19T01:29:26.952Z,95457.48
2019-01-19T01:32:20.671Z,95461.99
2019-01-19T01:35:36.244Z,95467.57
2019-01-19T01:38:43.347Z,95459.36
2019-01-19T01:42:04.545Z,95460.39
2019-01-19T01:44:42.818Z,95460.91
2019-01-19T01:48:06.582Z,95458.80
2019-01-19T01:51:04.763Z,95461.45
2019-01-19T01:54:13.775Z,95462.77
2019-01-19T01:56:43.129Z,95467.02
2019-01-19T01:59:58.510Z,95464.38
2019-01-19T02:02:42.122Z,95472.35
2019-01-19T02:05:40.327Z,95468.91
2019-01-19T02:08:48.390Z,95455.37
2019-01-19T02:11:49.387Z,95451.67
2019-01-19T02:14:52.374Z,95460.96
2019-01-19T02:17:54.297Z,95463.33
2019-01-19T02:20:30.361Z,95455.89
2019-01-19T02:23:35.443Z,95455.86
2019-01-19T02:26:23.590Z,95453.45
2019-01-19T02:29:20.880Z,95453.30
2019-01-19T02:32:27.291Z,95453.83
2019-01-19T02:35:37.415Z,95452.85
2019-01-19T02:38:43.571Z,95452.64
2019-01-19T02:42:06.058Z,95452.63
2019-01-19T02:44:50.057Z,95456.30
2019-01-19T02:48:09.372Z,95455.05
2019-01-19T02:50:50.149Z,95450.84
2019-01-19T02:53:46.446Z,95459.59
2019-01-19T02:56:50.418Z,95457.48
2019-01-19T02:59:57.443Z,95459.58
2019-01-19T03:02:54.763Z,95458.78
2019-01-19T03:05:39.925Z,95453.98
2019-01-19T03:08:49.174Z,95452.45
2019-01-19T03:11:55.511Z,95450.61
2019-01-19T03:15:00.325Z,95451.16
2019-01-19T03:18:09.788Z,95446.38
2019-01-19T03:20:54.177Z,95446.09
2019-01-19T03:23:42.089Z,95437.61
2019-01-19T03:26:43.264Z,95443.14
2019-01-19T03:29:41.495Z,95448.06
2019-01-19T03:33:04.182Z,95451.23
2019-01-19T03:36:10.751Z,95449.75
2019-01-19T03:39:09.053Z,95454.58
2019-01-19T03:42:16.626Z,95447.44
2019-01-19T03:45:18.559Z,95458.86
2019-01-19T03:48:14.081Z,95455.94
2019-01-19T03:51:30.341Z,95457.52
2019-01-19T03:54:47.620Z,95464.44
2019-01-19T03:57:52.943Z,95460.45
2019-01-19T04:00:47.059Z,95463.10
2019-01-19T04:03:56.494Z,95464.14
2019-01-19T04:06:53.813Z,95472.11
2019-01-19T04:09:59.986Z,95468.14
2019-01-19T04:13:12.516Z,95472.36
2019-01-19T04:16:06.468Z,95469.43
2019-01-19T04:19:13.866Z,95474.22
2019-01-19T04:22:15.876Z,95477.15
2019-01-19T04:25:02.450Z,95480.33
2019-01-19T04:27:31.794Z,95477.14
2019-01-19T04:30:01.169Z,95476.88
2019-01-19T04:32:30.869Z,95479.56
2019-01-19T04:35:00.315Z,95483.52
2019-01-19T04:37:29.644Z,95483.27
2019-01-19T04:39:59.025Z,95481.41
2019-01-19T04:42:28.445Z,95480.09
2019-01-19T04:44:57.771Z,95480.86
2019-01-19T04:47:27.152Z,95481.91
2019-01-19T04:49:56.494Z,95491.13
2019-01-19T04:52:25.915Z,95490.31
2019-01-19T04:54:55.302Z,95497.69
2019-01-19T04:57:25.045Z,95498.14
2019-01-19T04:59:54.431Z,95506.66
2019-01-19T05:02:23.876Z,95509.35
2019-01-19T05:04:53.237Z,95511.70
2019-01-19T05:07:22.728Z,95504.03
2019-01-19T05:09:52.068Z,95508.25
2019-01-19T05:12:21.524Z,95509.79
2019-01-19T05:14:50.871Z,95510.23
2019-01-19T05:17:20.255Z,95511.02
2019-01-19T05:19:49.677Z,95507.56
2019-01-19T05:22:19.070Z,95506.77
2019-01-19T05:24:48.642Z,95513.36
2019-01-19T05:27:18.146Z,95518.91
2019-01-19T05:29:47.653Z,95515.98
2019-01-19T05:32:17.735Z,95522.83
2019-01-19T05:34:47.649Z,95525.45
2019-01-19T05:37:17.033Z,95530.75
2019-01-19T05:39:46.393Z,95520.72
2019-01-19T05:42:15.760Z,95530.79
2019-01-19T05:44:45.126Z,95527.61
2019-01-19T05:47:14.535Z,95519.20
2019-01-19T05:49:44.034Z,95515.50
2019-01-19T05:52:13.846Z,95523.44
2019-01-19T05:54:43.266Z,95531.11
2019-01-19T05:57:12.711Z,95527.69
2019-01-19T05:59:42.508Z,95521.66
2019-01-19T06:02:11.985Z,95526.62
2019-01-19T06:04:42.064Z,95528.21
2019-01-19T06:07:12.314Z,95529.31
2019-01-19T06:09:41.859Z,95540.17
2019-01-19T06:12:11.699Z,95535.34
2019-01-19T06:14:41.502Z,95543.06
2019-01-19T06:17:11.242Z,95545.83
2019-01-19T06:19:40.858Z,95541.33
2019-01-19T06:22:10.726Z,95550.60
2019-01-19T06:24:40.071Z,95547.42
2019-01-19T06:27:09.563Z,95546.67
2019-01-19T06:29:39.103Z,95550.17
2019-01-19T06:32:08.528Z,95551.05
2019-01-19T06:34:37.878Z,95549.97
2019-01-19T06:37:07.309Z,95555.53
2019-01-19T06:39:36.758Z,95541.22
2019-01-19T06:42:06.148Z,95551.06
2019-01-19T06:44:35.978Z,95542.86
2019-01-19T06:47:05.396Z,95551.63
2019-01-19T06:49:34.747Z,95553.17
2019-01-19T06:52:04.594Z,95553.98
2019-01-19T06:54:33.989Z,95562.22
2019-01-19T06:57:03.321Z,95564.90
2019-01-19T06:59:33.134Z,95571.53
2019-01-19T07:02:02.831Z,95576.59
2019-01-19T07:04:32.207Z,95573.19
2019-01-19T07:07:02.843Z,95568.13
2019-01-19T07:09:32.486Z,95568.92
2019-01-19T07:12:01.937Z,95574.45
2019-01-19T07:14:31.284Z,95571.05
2019-01-19T07:17:13.546Z,95572.91
2019-01-19T07:19:42.939Z,95564.92
2019-01-19T07:22:12.305Z,95567.27
2019-01-19T07:24:41.695Z,95575.06
2019-01-19T07:27:11.539Z,95576.39
2019-01-19T07:29:40.958Z,95573.28
2019-01-19T07:32:10.355Z,95573.52
2019-01-19T07:34:40.183Z,95573.80
2019-01-19T07:37:10.065Z,95570.06
2019-01-19T07:39:39.552Z,95573.54
2019-01-19T07:42:08.907Z,95574.86
2019-01-19T07:44:38.771Z,95583.65
2019-01-19T07:47:08.621Z,95582.58
2019-01-19T07:49:38.029Z,95594.26
2019-01-19T07:52:07.407Z,95597.45
2019-01-19T07:54:36.773Z,95588.16
2019-01-19T07:57:06.169Z,95583.37
2019-01-19T07:59:35.532Z,95584.94
2019-01-19T08:02:04.910Z,95587.59
2019-01-19T08:04:34.465Z,95563.72
2019-01-19T08:07:03.884Z,95563.72
2019-01-19T08:09:33.639Z,95587.34
2019-01-19T08:12:03.196Z,95591.05
2019-01-19T08:14:32.642Z,95591.05
2019-01-19T08:17:02.512Z,95602.95
2019-01-19T08:19:31.873Z,95604.58
2019-01-19T08:22:10.343Z,95595.55
2019-01-19T08:24:40.164Z,95600.52
2019-01-19T08:27:09.582Z,95593.34
2019-01-19T08:29:38.973Z,95593.34
2019-01-19T08:32:08.348Z,95602.89
2019-01-19T08:34:37.709Z,95599.94
2019-01-19T08:37:07.087Z,95611.63
2019-01-19T08:39:36.556Z,95610.76
2019-01-19T08:42:05.930Z,95612.38
2019-01-19T08:44:35.301Z,95617.13
2019-01-19T08:47:04.684Z,95618.42
2019-01-19T08:49:34.082Z,95617.80
2019-01-19T08:52:03.415Z,95590.49
2019-01-19T08:54:32.770Z,95632.22
2019-01-19T08:57:02.176Z,95634.40
2019-01-19T08:59:31.536Z,95634.03
2019-01-19T09:02:00.903Z,95635.44
2019-01-19T09:04:30.267Z,95635.44
2019-01-19T09:06:59.668Z,95634.25
2019-01-19T09:09:29.077Z,95637.25
2019-01-19T09:11:58.448Z,95634.12
2019-01-19T09:14:27.798Z,95638.78
2019-01-19T09:16:58.176Z,95639.05
2019-01-19T09:19:27.717Z,95634.34
2019-01-19T09:21:57.116Z,95633.58
2019-01-19T09:24:28.127Z,95631.23
2019-01-19T09:26:57.638Z,95629.59
2019-01-19T09:29:26.979Z,95630.98
2019-01-19T09:31:56.295Z,95627.77
2019-01-19T09:34:25.657Z,95622.48
2019-01-19T09:36:55.307Z,95613.94
2019-01-19T09:39:26.974Z,95618.94
2019-01-19T09:41:56.428Z,95612.18
2019-01-19T09:44:25.891Z,95612.98
2019-01-19T09:46:55.569Z,95611.44
2019-01-19T09:49:24.940Z,95606.23
2019-01-19T09:51:55.659Z,95599.36
2019-01-19T09:54:25.160Z,95591.94
2019-01-19T09:56:54.688Z,95590.20
2019-01-19T09:59:24.146Z,95596.89
2019-01-19T10:01:53.728Z,95598.77
2019-01-19T10:04:23.248Z,95591.98
2019-01-19T10:06:52.605Z,95587.95
2019-01-19T10:09:22.314Z,95586.50
2019-01-19T10:11:51.692Z,95580.45
2019-01-19T10:14:21.187Z,95575.54
2019-01-19T10:16:50.551Z,95578.06
2019-01-19T10:19:22.953Z,95578.24
2019-01-19T10:21:52.475Z,95573.22
2019-01-19T10:24:21.944Z,95569.09
2019-01-19T10:26:51.292Z,95564.03
2019-01-19T10:29:20.964Z,95564.02
2019-01-19T10:31:50.371Z,95560.89
2019-01-19T10:34:19.728Z,95557.89
2019-01-19T10:36:49.107Z,95565.14
2019-01-19T10:39:18.487Z,95560.89
2019-01-19T10:41:47.862Z,95565.72
2019-01-19T10:44:17.497Z,95566.24
2019-01-19T10:46:46.922Z,95565.45
2019-01-19T10:49:16.378Z,95552.06
2019-01-19T10:51:48.556Z,95552.97
2019-01-19T10:54:17.929Z,95552.86
2019-01-19T10:56:47.277Z,95544.75
2019-01-19T10:59:19.389Z,95542.45
2019-01-19T11:01:49.041Z,95539.85
2019-01-19T11:04:19.053Z,95534.30
2019-01-19T11:06:48.418Z,95541.03
2019-01-19T11:09:17.764Z,95535.61
2019-01-19T11:11:47.133Z,95532.26
2019-01-19T11:14:17.243Z,95534.20
2019-01-19T11:16:47.177Z,95529.57
2019-01-19T11:19:16.531Z,95525.72
2019-01-19T11:21:46.029Z,95520.78
2019-01-19T11:24:16.336Z,95517.69
2019-01-19T11:26:45.750Z,95515.55
2019-01-19T11:29:15.139Z,95516.42
2019-01-19T11:31:44.523Z,95520.45
2019-01-19T11:34:13.900Z,95512.69
2019-01-19T11:36:43.399Z,95513.03
2019-01-19T11:39:12.749Z,95521.77
2019-01-19T11:41:42.180Z,95522.24
2019-01-19T11:44:11.564Z,95514.98
2019-01-19T11:46:40.949Z,95520.29
2019-01-19T11:49:10.352Z,95512.27
2019-01-19T11:51:39.740Z,95510.39
2019-01-19T11:54:09.762Z,95508.83
2019-01-19T11:56:39.168Z,95497.26
2019-01-19T11:59:09.043Z,95490.98
2019-01-19T12:01:38.430Z,95502.80
2019-01-19T12:04:07.817Z,95506.88
2019-01-19T12:06:37.239Z,95508.52
2019-01-19T12:09:08.062Z,95505.39
2019-01-19T12:11:38.011Z,95496.45
2019-01-19T12:14:07.553Z,95495.95
2019-01-19T12:16:36.882Z,95494.47
2019-01-19T12:19:06.408Z,95487.30
2019-01-19T12:21:36.074Z,95491.81
2019-01-19T12:24:05.708Z,95487.97
2019-01-19T12:26:35.150Z,95490.00
2019-01-19T12:29:04.781Z,95493.20
2019-01-19T12:31:34.524Z,95487.28
2019-01-19T12:34:03.897Z,95483.48
2019-01-19T12:36:33.900Z,95481.25
2019-01-19T12:39:05.172Z,95476.20
2019-01-19T12:41:35.827Z,95472.32
2019-01-19T12:44:07.925Z,95473.52
2019-01-19T12:46:40.690Z,95477.04
2019-01-19T12:49:11.440Z,95469.23
2019-01-19T12:51:44.066Z,95473.70
2019-01-19T12:54:14.730Z,95473.87
2019-01-19T12:56:44.141Z,95472.94
2019-01-19T12:59:13.390Z,95464.80
2019-01-19T13:01:42.855Z,95471.69
2019-01-19T13:04:12.341Z,95475.50
2019-01-19T13:06:55.196Z,95474.06
2019-01-19T13:09:46.247Z,95472.81
2019-01-19T13:12:48.218Z,95477.11
2019-01-19T13:15:59.192Z,95471.21
2019-01-19T13:18:46.023Z,95466.61
2019-01-19T13:22:09.134Z,95469.95
2019-01-19T13:25:33.379Z,95467.27
2019-01-19T13:28:36.982Z,95470.16
2019-01-19T13:31:58.323Z,95467.98
2019-01-19T13:35:21.030Z,95463.50
2019-01-19T13:38:30.652Z,95465.02
2019-01-19T13:41:53.678Z,95453.29
2019-01-19T13:45:06.363Z,95460.97
2019-01-19T13:48:09.367Z,95461.06
2019-01-19T13:51:15.975Z,95459.60
2019-01-19T13:54:20.026Z,95456.27
2019-01-19T13:57:26.931Z,95456.71
2019-01-19T14:00:18.494Z,95451.92
2019-01-19T14:03:29.929Z,95459.16
2019-01-19T14:06:27.244Z,95455.59
2019-01-19T14:09:39.656Z,95453.50
2019-01-19T14:12:48.689Z,95456.08
2019-01-19T14:15:50.588Z,95460.80
2019-01-19T14:18:50.618Z,95457.14
2019-01-19T14:21:56.002Z,95455.09
2019-01-19T14:24:48.388Z,95455.71
2019-01-19T14:27:37.383Z,95451.70
2019-01-19T14:31:02.449Z,95454.55
2019-01-19T14:34:10.210Z,95446.61
2019-01-19T14:37:18.850Z,95448.11
2019-01-19T14:40:15.750Z,95442.04
2019-01-19T14:43:20.787Z,95438.01
2019-01-19T14:46:12.331Z,95439.69
2019-01-19T14:49:28.070Z,95436.98
2019-01-19T14:52:22.597Z,95440.53
2019-01-19T14:55:34.391Z,95441.40
2019-01-19T14:58:37.003Z,95449.33
2019-01-19T15:01:53.456Z,95443.48
2019-01-19T15:05:02.424Z,95446.73
2019-01-19T15:07:57.003Z,95452.91
2019-01-19T15:11:06.366Z,95456.70
2019-01-19T15:14:29.448Z,95447.97
2019-01-19T15:17:48.470Z,95443.09
2019-01-19T15:21:13.624Z,95444.53
2019-01-19T15:24:15.354Z,95443.27
2019-01-19T15:27:27.197Z,95430.28
2019-01-19T15:30:47.403Z,95443.05
2019-01-19T15:34:08.588Z,95452.78
2019-01-19T15:37:24.705Z,95453.79
2019-01-19T15:40:44.212Z,95458.89
2019-01-19T15:44:01.160Z,95460.64
2019-01-19T15:47:07.449Z,95450.88
2019-01-19T15:50:20.970Z,95454.53
2019-01-19T15:53:07.851Z,95458.34
2019-01-19T15:56:14.211Z,95453.58
2019-01-19T15:59:26.078Z,95451.15
2019-01-19T16:02:47.636Z,95450.70
2019-01-19T16:05:39.810Z,95454.99
2019-01-19T16:08:56.199Z,95467.36
2019-01-19T16:11:58.051Z,95471.58
2019-01-19T16:14:54.204Z,95469.09
2019-01-19T16:17:49.998Z,95469.41
2019-01-19T16:20:44.028Z,95476.52
2019-01-19T16:23:50.938Z,95463.34
2019-01-19T16:26:50.834Z,95467.42
2019-01-19T16:30:04.685Z,95460.46
2019-01-19T16:33:30.106Z,95458.56
2019-01-19T16:36:09.827Z,95462.00
2019-01-19T16:39:01.920Z,95467.05
2019-01-19T16:42:18.824Z,95467.90
2019-01-19T16:45:34.238Z,95473.55
2019-01-19T16:48:46.786Z,95459.28
2019-01-19T16:52:03.006Z,95480.86
2019-01-19T16:55:13.413Z,95480.86
2019-01-19T16:58:13.957Z,95470.33
2019-01-19T17:01:14.589Z,95470.33
2019-01-19T17:04:02.278Z,95479.64
2019-01-19T17:07:18.817Z,95475.52
2019-01-19T17:10:13.068Z,95487.00
2019-01-19T17:13:19.155Z,95487.00
2019-01-19T17:16:20.624Z,95485.27
2019-01-19T17:19:13.606Z,95481.74
2019-01-19T17:22:39.110Z,95489.95
2019-01-19T17:25:45.121Z,95490.81
2019-01-19T17:29:04.492Z,95493.36
2019-01-19T17:32:29.893Z,95487.66
2019-01-19T17:35:54.770Z,95498.57
2019-01-19T17:39:05.168Z,95493.47
2019-01-19T17:42:05.804Z,95495.50
2019-01-19T17:45:00.172Z,95486.16
2019-01-19T17:48:10.295Z,95487.48
2019-01-19T17:51:19.269Z,95504.48
2019-01-19T17:54:22.444Z,95505.72
2019-01-19T17:57:32.681Z,95505.35
2019-01-19T18:00:54.176Z,95497.41
2019-01-19T18:03:35.319Z,95507.89
2019-01-19T18:06:31.021Z,95507.89
2019-01-19T18:09:50.039Z,95508.48
2019-01-19T18:13:14.747Z,95390.25
2019-01-19T18:16:01.362Z,95502.77
2019-01-19T18:18:46.055Z,95515.22
2019-01-19T18:22:07.018Z,95510.72
2019-01-19T18:25:17.765Z,95510.72
2019-01-19T18:28:26.174Z,95512.49
2019-01-19T18:31:41.150Z,95512.49
2019-01-19T18:34:58.710Z,95515.70
2019-01-19T18:38:07.676Z,95511.81
2019-01-19T18:41:21.071Z,95512.77
2019-01-19T18:44:43.787Z,95510.13
2019-01-19T18:47:35.144Z,95509.36
2019-01-19T18:50:38.526Z,95509.36
2019-01-19T18:53:32.095Z,95510.72
2019-01-19T18:56:25.810Z,95515.02
2019-01-19T18:59:23.102Z,95515.02
2019-01-19T19:02:25.501Z,95512.86
2019-01-19T19:05:32.588Z,95508.56
2019-01-19T19:08:30.056Z,95495.48
2019-01-19T19:11:35.362Z,95508.62
2019-01-19T19:14:29.274Z,95508.62
2019-01-19T19:17:30.656Z,95509.48
2019-01-19T19:20:41.102Z,95509.48
2019-01-19T19:23:45.337Z,95513.48
2019-01-19T19:26:48.269Z,95507.61
2019-01-19T19:29:33.716Z,95510.60
2019-01-19T19:32:56.127Z,95510.60
2019-01-19T19:36:04.586Z,95510.89
2019-01-19T19:38:56.060Z,95511.22
2019-01-19T19:42:15.105Z,95515.55
2019-01-19T19:45:13.213Z,95517.73
2019-01-19T19:48:35.892Z,95506.41
2019-01-19T19:51:41.130Z,95515.20
2019-01-19T19:54:10.496Z,95521.89
2019-01-19T19:56:38.096Z,95521.64
2019-01-19T19:59:08.538Z,95521.41
2019-01-19T20:01:39.103Z,95529.45
2019-01-19T20:04:08.496Z,95527.30
2019-01-19T20:06:37.882Z,95523.32
2019-01-19T20:09:10.284Z,95522.52
2019-01-19T20:11:39.738Z,95532.99
2019-01-19T20:14:09.225Z,95523.69
2019-01-19T20:16:38.667Z,95526.10
2019-01-19T20:19:08.020Z,95526.17
2019-01-19T20:21:38.279Z,95530.73
2019-01-19T20:24:07.686Z,95527.23
2019-01-19T20:26:37.458Z,95524.05
2019-01-19T20:29:06.794Z,95525.35
2019-01-19T20:31:36.178Z,95524.84
2019-01-19T20:34:05.776Z,95514.73
2019-01-19T20:36:35.169Z,95520.91
2019-01-19T20:39:06.684Z,95523.06
2019-01-19T20:41:36.061Z,95527.86
2019-01-19T20:44:05.660Z,95522.58
2019-01-19T20:46:35.061Z,95519.86
2019-01-19T20:49:04.547Z,95519.58
2019-01-19T20:51:33.909Z,95521.71
2019-01-19T20:54:03.256Z,95524.11
2019-01-19T20:56:32.632Z,95520.42
2019-01-19T20:59:01.998Z,95520.70
2019-01-19T21:01:31.386Z,95519.69
2019-01-19T21:04:00.811Z,95527.37
2019-01-19T21:06:30.186Z,95517.53
2019-01-19T21:08:59.543Z,95519.64
2019-01-19T21:11:28.910Z,95515.62
2019-01-19T21:13:58.321Z,95523.55
2019-01-19T21:16:27.646Z,95466.04
2019-01-19T21:18:57.033Z,95518.78
2019-01-19T21:21:26.410Z,95518.24
2019-01-19T21:23:55.819Z,95528.33
2019-01-19T21:26:25.635Z,95528.33
2019-01-19T21:28:55.006Z,95527.51
2019-01-19T21:31:24.347Z,95526.37
2019-01-19T21:33:53.688Z,95525.23
2019-01-19T21:36:23.010Z,95527.39
2019-01-19T21:38:52.342Z,95532.19
2019-01-19T21:41:21.725Z,95532.67
2019-01-19T21:43:51.103Z,95541.23
2019-01-19T21:46:20.475Z,95541.23
2019-01-19T21:48:49.842Z,95539.66
2019-01-19T21:51:19.215Z,95539.66
2019-01-19T21:53:48.542Z,95535.90
2019-01-19T21:56:17.893Z,95533.77
2019-01-19T21:58:47.268Z,95537.23
2019-01-19T22:01:16.613Z,95532.41
2019-01-19T22:03:45.957Z,95532.41
2019-01-19T22:06:15.359Z,95531.88
2019-01-19T22:08:44.793Z,95529.50
2019-01-19T22:11:14.155Z,95122.39
2019-01-19T22:13:43.511Z,95535.34
2019-01-19T22:16:13.137Z,95531.11
2019-01-19T22:18:42.498Z,95530.01
2019-01-19T22:21:11.861Z,95538.52
2019-01-19T22:23:41.202Z,95524.70
2019-01-19T22:26:13.095Z,95528.17
2019-01-19T22:28:42.491Z,95531.64
2019-01-19T22:31:11.947Z,95521.77
2019-01-19T22:33:41.584Z,95524.19
2019-01-19T22:36:11.093Z,95520.48
2019-01-19T22:38:40.504Z,95516.99
2019-01-19T22:41:09.999Z,95517.50
2019-01-19T22:43:39.363Z,95510.56
2019-01-19T22:46:08.799Z,95512.22
2019-01-19T22:48:38.158Z,95511.97
2019-01-19T22:51:11.354Z,95508.77
2019-01-19T22:53:38.559Z,95511.20
2019-01-19T22:56:07.934Z,95520.02
2019-01-19T22:58:37.321Z,95511.24
2019-01-19T23:01:34.005Z,95509.11
2019-01-19T23:04:03.447Z,95510.97
2019-01-19T23:06:32.829Z,95503.27
2019-01-19T23:09:02.168Z,95492.60
2019-01-19T23:11:33.997Z,95500.31
2019-01-19T23:14:02.915Z,95498.47
2019-01-19T23:16:32.282Z,95491.56
2019-01-19T23:19:01.623Z,95487.05
2019-01-19T23:21:30.984Z,95489.72
2019-01-19T23:24:00.329Z,95492.09
2019-01-19T23:26:30.068Z,95487.80
2019-01-19T23:28:59.471Z,95491.00
2019-01-19T23:31:28.949Z,95493.96
2019-01-19T23:33:58.298Z,95481.45
2019-01-19T23:36:27.611Z,95475.62
2019-01-19T23:38:56.949Z,95483.08
2019-01-19T23:41:26.337Z,95478.81
2019-01-19T23:43:55.714Z,95468.45
2019-01-19T23:46:25.109Z,95477.50
2019-01-19T23:48:54.459Z,95473.53
2019-01-19T23:51:23.949Z,95473.82
2019-01-19T23:53:53.679Z,95470.08
2019-01-19T23:56:23.063Z,95471.20
2019-01-19T23:58:52.406Z,95473.06
